sensor_id;sensor_type;location;lat;lon;timestamp;P1;durP1;ratioP1;P2;durP2;ratioP2
41946;SDS011;27638;42.184;24.848;2023-04-24T00:00:44;13.50;;;7.00;;
41946;SDS011;27638;42.184;24.848;2023-04-24T00:03:10;11.57;;;8.38;;
41946;SDS011;27638;42.184;24.848;2023-04-24T00:05:36;14.52;;;7.35;;
41946;SDS011;27638;42.184;24.848;2023-04-24T00:08:01;10.40;;;6.78;;
41946;SDS011;27638;42.184;24.848;2023-04-24T00:10:27;11.48;;;7.72;;
41946;SDS011;27638;42.184;24.848;2023-04-24T00:12:52;12.05;;;7.70;;
41946;SDS011;27638;42.184;24.848;2023-04-24T00:15:18;10.13;;;7.57;;
41946;SDS011;27638;42.184;24.848;2023-04-24T00:17:43;11.02;;;7.10;;
41946;SDS011;27638;42.184;24.848;2023-04-24T00:20:09;11.00;;;7.90;;
41946;SDS011;27638;42.184;24.848;2023-04-24T00:22:35;11.88;;;7.35;;
41946;SDS011;27638;42.184;24.848;2023-04-24T00:25:01;16.45;;;7.88;;
41946;SDS011;27638;42.184;24.848;2023-04-24T00:27:26;13.43;;;7.82;;
41946;SDS011;27638;42.184;24.848;2023-04-24T00:29:51;11.65;;;8.18;;
41946;SDS011;27638;42.184;24.848;2023-04-24T00:32:17;10.88;;;7.40;;
41946;SDS011;27638;42.184;24.848;2023-04-24T00:34:42;11.43;;;7.72;;
41946;SDS011;27638;42.184;24.848;2023-04-24T00:37:08;11.13;;;7.32;;
41946;SDS011;27638;42.184;24.848;2023-04-24T00:39:33;12.45;;;7.45;;
41946;SDS011;27638;42.184;24.848;2023-04-24T00:41:59;9.90;;;7.30;;
41946;SDS011;27638;42.184;24.848;2023-04-24T00:44:26;10.88;;;7.47;;
41946;SDS011;27638;42.184;24.848;2023-04-24T00:46:52;9.57;;;7.20;;
41946;SDS011;27638;42.184;24.848;2023-04-24T00:49:20;10.80;;;8.15;;
41946;SDS011;27638;42.184;24.848;2023-04-24T00:51:46;13.88;;;7.75;;
41946;SDS011;27638;42.184;24.848;2023-04-24T00:54:14;9.88;;;7.25;;
41946;SDS011;27638;42.184;24.848;2023-04-24T00:56:41;12.80;;;8.25;;
41946;SDS011;27638;42.184;24.848;2023-04-24T00:59:07;12.07;;;8.20;;
41946;SDS011;27638;42.184;24.848;2023-04-24T01:01:33;13.23;;;8.63;;
41946;SDS011;27638;42.184;24.848;2023-04-24T01:03:59;13.63;;;8.20;;
41946;SDS011;27638;42.184;24.848;2023-04-24T01:06:27;10.95;;;7.55;;
41946;SDS011;27638;42.184;24.848;2023-04-24T01:08:53;11.05;;;8.05;;
41946;SDS011;27638;42.184;24.848;2023-04-24T01:11:20;15.73;;;8.85;;
41946;SDS011;27638;42.184;24.848;2023-04-24T01:13:47;13.75;;;8.38;;
41946;SDS011;27638;42.184;24.848;2023-04-24T01:16:13;12.60;;;7.65;;
41946;SDS011;27638;42.184;24.848;2023-04-24T01:18:42;14.80;;;9.70;;
41946;SDS011;27638;42.184;24.848;2023-04-24T01:21:08;13.40;;;7.95;;
41946;SDS011;27638;42.184;24.848;2023-04-24T01:23:34;11.48;;;7.65;;
41946;SDS011;27638;42.184;24.848;2023-04-24T01:25:59;12.18;;;8.40;;
41946;SDS011;27638;42.184;24.848;2023-04-24T01:28:25;13.70;;;7.78;;
41946;SDS011;27638;42.184;24.848;2023-04-24T01:30:51;11.02;;;7.28;;
41946;SDS011;27638;42.184;24.848;2023-04-24T01:33:17;8.93;;;7.45;;
41946;SDS011;27638;42.184;24.848;2023-04-24T01:35:43;13.27;;;8.00;;
41946;SDS011;27638;42.184;24.848;2023-04-24T01:38:08;10.68;;;7.32;;
41946;SDS011;27638;42.184;24.848;2023-04-24T01:40:34;12.18;;;7.60;;
41946;SDS011;27638;42.184;24.848;2023-04-24T01:43:00;14.02;;;9.05;;
41946;SDS011;27638;42.184;24.848;2023-04-24T01:45:26;14.63;;;8.10;;
41946;SDS011;27638;42.184;24.848;2023-04-24T01:47:51;12.32;;;7.63;;
41946;SDS011;27638;42.184;24.848;2023-04-24T01:50:17;11.55;;;8.10;;
41946;SDS011;27638;42.184;24.848;2023-04-24T01:52:43;12.85;;;8.35;;
41946;SDS011;27638;42.184;24.848;2023-04-24T01:55:09;12.55;;;8.77;;
41946;SDS011;27638;42.184;24.848;2023-04-24T01:57:35;12.48;;;9.30;;
41946;SDS011;27638;42.184;24.848;2023-04-24T02:00:01;14.15;;;9.63;;
41946;SDS011;27638;42.184;24.848;2023-04-24T02:02:29;14.00;;;8.80;;
41946;SDS011;27638;42.184;24.848;2023-04-24T02:04:55;11.80;;;8.50;;
41946;SDS011;27638;42.184;24.848;2023-04-24T02:07:21;11.48;;;8.20;;
41946;SDS011;27638;42.184;24.848;2023-04-24T02:09:47;11.57;;;8.18;;
41946;SDS011;27638;42.184;24.848;2023-04-24T02:12:12;11.02;;;8.18;;
41946;SDS011;27638;42.184;24.848;2023-04-24T02:14:38;10.85;;;7.50;;
41946;SDS011;27638;42.184;24.848;2023-04-24T02:17:03;12.07;;;7.78;;
41946;SDS011;27638;42.184;24.848;2023-04-24T02:19:29;12.55;;;7.80;;
41946;SDS011;27638;42.184;24.848;2023-04-24T02:21:55;10.57;;;7.72;;
41946;SDS011;27638;42.184;24.848;2023-04-24T02:24:21;11.23;;;7.28;;
41946;SDS011;27638;42.184;24.848;2023-04-24T02:26:46;10.60;;;8.07;;
41946;SDS011;27638;42.184;24.848;2023-04-24T02:29:11;10.25;;;7.10;;
41946;SDS011;27638;42.184;24.848;2023-04-24T02:31:37;10.13;;;7.13;;
41946;SDS011;27638;42.184;24.848;2023-04-24T02:34:02;10.13;;;7.45;;
41946;SDS011;27638;42.184;24.848;2023-04-24T02:36:28;11.52;;;6.55;;
41946;SDS011;27638;42.184;24.848;2023-04-24T02:38:53;10.95;;;6.75;;
41946;SDS011;27638;42.184;24.848;2023-04-24T02:41:19;9.32;;;7.03;;
41946;SDS011;27638;42.184;24.848;2023-04-24T02:43:44;10.05;;;7.30;;
41946;SDS011;27638;42.184;24.848;2023-04-24T02:46:10;9.80;;;6.90;;
41946;SDS011;27638;42.184;24.848;2023-04-24T02:48:35;9.65;;;7.03;;
41946;SDS011;27638;42.184;24.848;2023-04-24T02:51:01;12.13;;;6.95;;
41946;SDS011;27638;42.184;24.848;2023-04-24T02:53:26;9.52;;;6.90;;
41946;SDS011;27638;42.184;24.848;2023-04-24T02:55:52;9.60;;;7.20;;
41946;SDS011;27638;42.184;24.848;2023-04-24T02:58:17;9.38;;;6.57;;
41946;SDS011;27638;42.184;24.848;2023-04-24T03:00:45;8.68;;;6.22;;
41946;SDS011;27638;42.184;24.848;2023-04-24T03:03:11;10.15;;;7.05;;
41946;SDS011;27638;42.184;24.848;2023-04-24T03:05:37;12.20;;;7.30;;
41946;SDS011;27638;42.184;24.848;2023-04-24T03:08:02;13.05;;;7.70;;
41946;SDS011;27638;42.184;24.848;2023-04-24T03:10:27;9.07;;;6.07;;
41946;SDS011;27638;42.184;24.848;2023-04-24T03:12:53;11.75;;;7.50;;
41946;SDS011;27638;42.184;24.848;2023-04-24T03:15:19;9.30;;;7.32;;
41946;SDS011;27638;42.184;24.848;2023-04-24T03:17:45;10.00;;;7.40;;
41946;SDS011;27638;42.184;24.848;2023-04-24T03:20:10;10.70;;;7.32;;
41946;SDS011;27638;42.184;24.848;2023-04-24T03:22:36;12.23;;;7.30;;
41946;SDS011;27638;42.184;24.848;2023-04-24T03:25:02;9.93;;;6.95;;
41946;SDS011;27638;42.184;24.848;2023-04-24T03:27:28;13.50;;;8.20;;
41946;SDS011;27638;42.184;24.848;2023-04-24T03:29:54;13.98;;;7.95;;
41946;SDS011;27638;42.184;24.848;2023-04-24T03:32:23;16.80;;;8.85;;
41946;SDS011;27638;42.184;24.848;2023-04-24T03:34:49;17.25;;;10.13;;
41946;SDS011;27638;42.184;24.848;2023-04-24T03:37:18;18.63;;;13.05;;
41946;SDS011;27638;42.184;24.848;2023-04-24T03:39:43;20.17;;;13.70;;
41946;SDS011;27638;42.184;24.848;2023-04-24T03:42:09;19.13;;;13.48;;
41946;SDS011;27638;42.184;24.848;2023-04-24T03:44:35;21.17;;;12.52;;
41946;SDS011;27638;42.184;24.848;2023-04-24T03:47:00;16.92;;;12.23;;
41946;SDS011;27638;42.184;24.848;2023-04-24T03:49:26;18.92;;;11.15;;
41946;SDS011;27638;42.184;24.848;2023-04-24T03:51:52;17.80;;;10.70;;
41946;SDS011;27638;42.184;24.848;2023-04-24T03:54:18;14.88;;;9.52;;
41946;SDS011;27638;42.184;24.848;2023-04-24T03:56:43;15.60;;;10.27;;
41946;SDS011;27638;42.184;24.848;2023-04-24T03:59:09;18.30;;;10.43;;
41946;SDS011;27638;42.184;24.848;2023-04-24T04:01:35;16.08;;;10.07;;
41946;SDS011;27638;42.184;24.848;2023-04-24T04:04:03;24.83;;;13.45;;
41946;SDS011;27638;42.184;24.848;2023-04-24T04:06:29;15.52;;;9.88;;
41946;SDS011;27638;42.184;24.848;2023-04-24T04:08:56;14.40;;;9.05;;
41946;SDS011;27638;42.184;24.848;2023-04-24T04:11:22;14.98;;;8.65;;
41946;SDS011;27638;42.184;24.848;2023-04-24T04:13:47;10.68;;;7.68;;
41946;SDS011;27638;42.184;24.848;2023-04-24T04:16:13;10.70;;;7.63;;
41946;SDS011;27638;42.184;24.848;2023-04-24T04:18:39;10.63;;;7.80;;
41946;SDS011;27638;42.184;24.848;2023-04-24T04:21:04;10.85;;;7.60;;
41946;SDS011;27638;42.184;24.848;2023-04-24T04:23:30;12.70;;;7.75;;
41946;SDS011;27638;42.184;24.848;2023-04-24T04:25:56;16.38;;;11.65;;
41946;SDS011;27638;42.184;24.848;2023-04-24T04:28:22;28.48;;;18.08;;
41946;SDS011;27638;42.184;24.848;2023-04-24T04:30:49;20.23;;;15.48;;
41946;SDS011;27638;42.184;24.848;2023-04-24T04:33:18;21.30;;;16.08;;
41946;SDS011;27638;42.184;24.848;2023-04-24T04:35:45;21.17;;;13.93;;
41946;SDS011;27638;42.184;24.848;2023-04-24T04:38:13;16.55;;;11.88;;
41946;SDS011;27638;42.184;24.848;2023-04-24T04:40:40;15.50;;;11.85;;
41946;SDS011;27638;42.184;24.848;2023-04-24T04:43:05;16.10;;;11.60;;
41946;SDS011;27638;42.184;24.848;2023-04-24T04:45:31;14.82;;;10.40;;
41946;SDS011;27638;42.184;24.848;2023-04-24T04:47:57;14.10;;;9.90;;
41946;SDS011;27638;42.184;24.848;2023-04-24T04:50:25;9.45;;;7.80;;
41946;SDS011;27638;42.184;24.848;2023-04-24T04:52:51;10.85;;;7.55;;
41946;SDS011;27638;42.184;24.848;2023-04-24T04:55:17;11.60;;;6.95;;
41946;SDS011;27638;42.184;24.848;2023-04-24T04:57:43;11.70;;;7.65;;
41946;SDS011;27638;42.184;24.848;2023-04-24T05:00:08;9.88;;;6.88;;
41946;SDS011;27638;42.184;24.848;2023-04-24T05:02:35;14.38;;;7.30;;
41946;SDS011;27638;42.184;24.848;2023-04-24T05:05:01;9.85;;;6.90;;
41946;SDS011;27638;42.184;24.848;2023-04-24T05:07:26;13.82;;;7.45;;
41946;SDS011;27638;42.184;24.848;2023-04-24T05:09:52;14.07;;;6.88;;
41946;SDS011;27638;42.184;24.848;2023-04-24T05:12:17;9.88;;;7.10;;
41946;SDS011;27638;42.184;24.848;2023-04-24T05:14:42;8.95;;;6.78;;
41946;SDS011;27638;42.184;24.848;2023-04-24T05:17:08;9.02;;;6.63;;
41946;SDS011;27638;42.184;24.848;2023-04-24T05:19:33;11.48;;;7.55;;
41946;SDS011;27638;42.184;24.848;2023-04-24T05:22:01;9.52;;;7.55;;
41946;SDS011;27638;42.184;24.848;2023-04-24T05:24:28;10.82;;;7.13;;
41946;SDS011;27638;42.184;24.848;2023-04-24T05:26:53;12.23;;;7.78;;
41946;SDS011;27638;42.184;24.848;2023-04-24T05:29:20;15.23;;;9.15;;
41946;SDS011;27638;42.184;24.848;2023-04-24T05:31:46;10.05;;;6.97;;
41946;SDS011;27638;42.184;24.848;2023-04-24T05:34:11;9.93;;;6.68;;
41946;SDS011;27638;42.184;24.848;2023-04-24T05:36:37;10.60;;;7.07;;
41946;SDS011;27638;42.184;24.848;2023-04-24T05:39:02;10.00;;;6.65;;
41946;SDS011;27638;42.184;24.848;2023-04-24T05:41:30;10.50;;;6.78;;
41946;SDS011;27638;42.184;24.848;2023-04-24T05:43:55;9.77;;;6.60;;
41946;SDS011;27638;42.184;24.848;2023-04-24T05:46:21;12.65;;;6.90;;
41946;SDS011;27638;42.184;24.848;2023-04-24T05:48:46;10.23;;;6.28;;
41946;SDS011;27638;42.184;24.848;2023-04-24T05:51:12;10.07;;;6.60;;
41946;SDS011;27638;42.184;24.848;2023-04-24T05:53:37;7.60;;;5.57;;
41946;SDS011;27638;42.184;24.848;2023-04-24T05:56:02;9.27;;;6.40;;
41946;SDS011;27638;42.184;24.848;2023-04-24T05:58:28;9.80;;;7.10;;
41946;SDS011;27638;42.184;24.848;2023-04-24T06:00:53;10.15;;;6.55;;
41946;SDS011;27638;42.184;24.848;2023-04-24T06:03:20;10.52;;;6.40;;
41946;SDS011;27638;42.184;24.848;2023-04-24T06:05:45;8.80;;;5.68;;
41946;SDS011;27638;42.184;24.848;2023-04-24T06:08:11;11.93;;;6.65;;
41946;SDS011;27638;42.184;24.848;2023-04-24T06:10:36;7.72;;;6.63;;
41946;SDS011;27638;42.184;24.848;2023-04-24T06:13:02;9.05;;;6.55;;
41946;SDS011;27638;42.184;24.848;2023-04-24T06:15:28;8.45;;;5.95;;
41946;SDS011;27638;42.184;24.848;2023-04-24T06:17:55;8.23;;;6.32;;
41946;SDS011;27638;42.184;24.848;2023-04-24T06:20:21;11.07;;;6.35;;
41946;SDS011;27638;42.184;24.848;2023-04-24T06:22:47;11.23;;;6.53;;
41946;SDS011;27638;42.184;24.848;2023-04-24T06:25:12;9.57;;;6.00;;
41946;SDS011;27638;42.184;24.848;2023-04-24T06:27:38;9.25;;;6.78;;
41946;SDS011;27638;42.184;24.848;2023-04-24T06:30:03;9.10;;;6.18;;
41946;SDS011;27638;42.184;24.848;2023-04-24T06:32:29;9.82;;;6.93;;
41946;SDS011;27638;42.184;24.848;2023-04-24T06:34:55;10.52;;;7.97;;
41946;SDS011;27638;42.184;24.848;2023-04-24T06:37:21;9.13;;;5.70;;
41946;SDS011;27638;42.184;24.848;2023-04-24T06:39:46;12.93;;;7.25;;
41946;SDS011;27638;42.184;24.848;2023-04-24T06:42:12;12.38;;;6.88;;
41946;SDS011;27638;42.184;24.848;2023-04-24T06:44:37;9.63;;;6.80;;
41946;SDS011;27638;42.184;24.848;2023-04-24T06:47:09;9.00;;;5.97;;
41946;SDS011;27638;42.184;24.848;2023-04-24T06:49:35;8.43;;;6.40;;
41946;SDS011;27638;42.184;24.848;2023-04-24T06:52:02;13.05;;;7.40;;
41946;SDS011;27638;42.184;24.848;2023-04-24T06:54:28;10.23;;;7.13;;
41946;SDS011;27638;42.184;24.848;2023-04-24T06:56:54;9.85;;;6.43;;
41946;SDS011;27638;42.184;24.848;2023-04-24T06:59:20;10.07;;;7.00;;
41946;SDS011;27638;42.184;24.848;2023-04-24T07:01:45;9.45;;;7.38;;
41946;SDS011;27638;42.184;24.848;2023-04-24T07:04:11;11.63;;;7.15;;
41946;SDS011;27638;42.184;24.848;2023-04-24T07:06:37;10.00;;;6.53;;
41946;SDS011;27638;42.184;24.848;2023-04-24T07:09:04;9.30;;;6.50;;
41946;SDS011;27638;42.184;24.848;2023-04-24T07:11:29;10.35;;;6.68;;
41946;SDS011;27638;42.184;24.848;2023-04-24T07:13:55;11.80;;;7.10;;
41946;SDS011;27638;42.184;24.848;2023-04-24T07:16:21;9.48;;;6.20;;
41946;SDS011;27638;42.184;24.848;2023-04-24T07:18:46;8.30;;;6.80;;
41946;SDS011;27638;42.184;24.848;2023-04-24T07:21:12;8.50;;;6.22;;
41946;SDS011;27638;42.184;24.848;2023-04-24T07:23:37;10.45;;;6.57;;
41946;SDS011;27638;42.184;24.848;2023-04-24T07:26:03;10.73;;;7.40;;
41946;SDS011;27638;42.184;24.848;2023-04-24T07:28:28;11.32;;;7.53;;
41946;SDS011;27638;42.184;24.848;2023-04-24T07:30:56;8.02;;;6.13;;
41946;SDS011;27638;42.184;24.848;2023-04-24T07:33:22;9.30;;;6.47;;
41946;SDS011;27638;42.184;24.848;2023-04-24T07:35:47;11.30;;;6.97;;
41946;SDS011;27638;42.184;24.848;2023-04-24T07:38:13;7.93;;;6.57;;
41946;SDS011;27638;42.184;24.848;2023-04-24T07:40:39;11.00;;;6.45;;
41946;SDS011;27638;42.184;24.848;2023-04-24T07:43:04;9.77;;;5.93;;
41946;SDS011;27638;42.184;24.848;2023-04-24T07:45:30;8.93;;;5.60;;
41946;SDS011;27638;42.184;24.848;2023-04-24T07:47:56;7.78;;;6.43;;
41946;SDS011;27638;42.184;24.848;2023-04-24T07:50:22;10.82;;;7.18;;
41946;SDS011;27638;42.184;24.848;2023-04-24T07:52:47;10.60;;;6.95;;
41946;SDS011;27638;42.184;24.848;2023-04-24T07:55:13;10.95;;;6.80;;
41946;SDS011;27638;42.184;24.848;2023-04-24T07:57:38;9.77;;;6.60;;
41946;SDS011;27638;42.184;24.848;2023-04-24T08:00:04;10.63;;;7.05;;
41946;SDS011;27638;42.184;24.848;2023-04-24T08:02:30;12.27;;;6.50;;
41946;SDS011;27638;42.184;24.848;2023-04-24T08:04:56;10.00;;;6.55;;
41946;SDS011;27638;42.184;24.848;2023-04-24T08:07:22;9.85;;;6.65;;
41946;SDS011;27638;42.184;24.848;2023-04-24T08:09:48;8.63;;;5.80;;
41946;SDS011;27638;42.184;24.848;2023-04-24T08:12:14;7.40;;;5.93;;
41946;SDS011;27638;42.184;24.848;2023-04-24T08:14:39;7.80;;;6.22;;
41946;SDS011;27638;42.184;24.848;2023-04-24T08:17:05;10.07;;;7.00;;
41946;SDS011;27638;42.184;24.848;2023-04-24T08:19:30;8.45;;;5.88;;
41946;SDS011;27638;42.184;24.848;2023-04-24T08:21:56;8.68;;;6.05;;
41946;SDS011;27638;42.184;24.848;2023-04-24T08:24:22;8.07;;;7.10;;
41946;SDS011;27638;42.184;24.848;2023-04-24T08:26:48;7.78;;;6.07;;
41946;SDS011;27638;42.184;24.848;2023-04-24T08:29:15;9.60;;;5.75;;
41946;SDS011;27638;42.184;24.848;2023-04-24T08:31:41;8.18;;;6.03;;
41946;SDS011;27638;42.184;24.848;2023-04-24T08:34:06;9.57;;;5.97;;
41946;SDS011;27638;42.184;24.848;2023-04-24T08:36:32;11.32;;;6.45;;
41946;SDS011;27638;42.184;24.848;2023-04-24T08:38:57;14.50;;;6.60;;
41946;SDS011;27638;42.184;24.848;2023-04-24T08:41:23;7.68;;;6.63;;
41946;SDS011;27638;42.184;24.848;2023-04-24T08:43:51;8.35;;;6.20;;
41946;SDS011;27638;42.184;24.848;2023-04-24T08:46:16;9.52;;;6.95;;
41946;SDS011;27638;42.184;24.848;2023-04-24T08:48:44;9.88;;;6.60;;
41946;SDS011;27638;42.184;24.848;2023-04-24T08:51:10;10.70;;;6.95;;
41946;SDS011;27638;42.184;24.848;2023-04-24T08:53:36;9.68;;;6.05;;
41946;SDS011;27638;42.184;24.848;2023-04-24T08:56:02;6.90;;;5.72;;
41946;SDS011;27638;42.184;24.848;2023-04-24T08:58:28;9.90;;;6.30;;
41946;SDS011;27638;42.184;24.848;2023-04-24T09:00:54;9.60;;;6.00;;
41946;SDS011;27638;42.184;24.848;2023-04-24T09:03:20;11.30;;;6.50;;
41946;SDS011;27638;42.184;24.848;2023-04-24T09:05:46;10.07;;;6.47;;
41946;SDS011;27638;42.184;24.848;2023-04-24T09:08:14;9.75;;;5.60;;
41946;SDS011;27638;42.184;24.848;2023-04-24T09:10:42;6.25;;;5.35;;
41946;SDS011;27638;42.184;24.848;2023-04-24T09:13:08;7.40;;;5.97;;
41946;SDS011;27638;42.184;24.848;2023-04-24T09:15:35;10.30;;;5.82;;
41946;SDS011;27638;42.184;24.848;2023-04-24T09:18:01;7.60;;;5.40;;
41946;SDS011;27638;42.184;24.848;2023-04-24T09:20:26;8.95;;;6.05;;
41946;SDS011;27638;42.184;24.848;2023-04-24T09:22:55;6.18;;;5.35;;
41946;SDS011;27638;42.184;24.848;2023-04-24T09:25:22;7.28;;;5.13;;
41946;SDS011;27638;42.184;24.848;2023-04-24T09:27:48;8.68;;;6.35;;
41946;SDS011;27638;42.184;24.848;2023-04-24T09:30:13;9.40;;;5.80;;
41946;SDS011;27638;42.184;24.848;2023-04-24T09:32:45;8.02;;;5.55;;
41946;SDS011;27638;42.184;24.848;2023-04-24T09:35:11;8.75;;;5.22;;
41946;SDS011;27638;42.184;24.848;2023-04-24T09:37:38;9.38;;;6.00;;
41946;SDS011;27638;42.184;24.848;2023-04-24T09:40:19;10.07;;;5.90;;
41946;SDS011;27638;42.184;24.848;2023-04-24T09:42:54;8.60;;;5.82;;
41946;SDS011;27638;42.184;24.848;2023-04-24T09:47:51;9.73;;;5.70;;
41946;SDS011;27638;42.184;24.848;2023-04-24T09:50:18;7.78;;;5.75;;
41946;SDS011;27638;42.184;24.848;2023-04-24T09:52:45;6.05;;;5.05;;
41946;SDS011;27638;42.184;24.848;2023-04-24T09:55:19;7.85;;;5.40;;
41946;SDS011;27638;42.184;24.848;2023-04-24T10:00:17;8.10;;;4.93;;
41946;SDS011;27638;42.184;24.848;2023-04-24T10:02:43;7.00;;;5.78;;
41946;SDS011;27638;42.184;24.848;2023-04-24T10:05:10;7.63;;;5.72;;
41946;SDS011;27638;42.184;24.848;2023-04-24T10:07:37;6.88;;;5.25;;
41946;SDS011;27638;42.184;24.848;2023-04-24T10:10:03;5.88;;;4.85;;
41946;SDS011;27638;42.184;24.848;2023-04-24T10:12:29;8.07;;;5.28;;
41946;SDS011;27638;42.184;24.848;2023-04-24T10:14:55;8.20;;;5.38;;
41946;SDS011;27638;42.184;24.848;2023-04-24T10:17:22;7.97;;;5.85;;
41946;SDS011;27638;42.184;24.848;2023-04-24T10:19:50;7.75;;;5.45;;
41946;SDS011;27638;42.184;24.848;2023-04-24T10:22:16;8.73;;;6.05;;
41946;SDS011;27638;42.184;24.848;2023-04-24T10:24:43;7.72;;;5.47;;
41946;SDS011;27638;42.184;24.848;2023-04-24T10:27:10;9.20;;;5.72;;
41946;SDS011;27638;42.184;24.848;2023-04-24T10:29:37;7.53;;;5.57;;
41946;SDS011;27638;42.184;24.848;2023-04-24T10:32:06;6.82;;;4.72;;
41946;SDS011;27638;42.184;24.848;2023-04-24T10:34:32;7.00;;;5.65;;
41946;SDS011;27638;42.184;24.848;2023-04-24T10:36:57;7.10;;;5.63;;
41946;SDS011;27638;42.184;24.848;2023-04-24T10:39:23;7.68;;;4.90;;
41946;SDS011;27638;42.184;24.848;2023-04-24T10:41:49;8.07;;;5.80;;
41946;SDS011;27638;42.184;24.848;2023-04-24T10:44:15;7.85;;;5.40;;
41946;SDS011;27638;42.184;24.848;2023-04-24T10:46:45;7.40;;;5.50;;
41946;SDS011;27638;42.184;24.848;2023-04-24T10:49:14;6.22;;;5.45;;
41946;SDS011;27638;42.184;24.848;2023-04-24T10:51:44;6.13;;;5.30;;
41946;SDS011;27638;42.184;24.848;2023-04-24T10:54:27;7.43;;;5.40;;
41946;SDS011;27638;42.184;24.848;2023-04-24T10:59:48;6.82;;;5.60;;
41946;SDS011;27638;42.184;24.848;2023-04-24T11:02:14;7.03;;;5.68;;
41946;SDS011;27638;42.184;24.848;2023-04-24T11:04:41;6.90;;;5.47;;
41946;SDS011;27638;42.184;24.848;2023-04-24T11:07:10;6.28;;;5.25;;
41946;SDS011;27638;42.184;24.848;2023-04-24T11:09:36;8.52;;;5.72;;
41946;SDS011;27638;42.184;24.848;2023-04-24T11:12:11;6.07;;;5.30;;
41946;SDS011;27638;42.184;24.848;2023-04-24T11:22:35;7.47;;;5.20;;
41946;SDS011;27638;42.184;24.848;2023-04-24T11:25:03;7.35;;;5.40;;
41946;SDS011;27638;42.184;24.848;2023-04-24T11:27:38;7.28;;;5.93;;
41946;SDS011;27638;42.184;24.848;2023-04-24T11:30:05;7.70;;;6.07;;
41946;SDS011;27638;42.184;24.848;2023-04-24T11:35:15;8.73;;;5.72;;
41946;SDS011;27638;42.184;24.848;2023-04-24T11:37:53;5.80;;;5.25;;
41946;SDS011;27638;42.184;24.848;2023-04-24T11:40:20;8.50;;;5.57;;
41946;SDS011;27638;42.184;24.848;2023-04-24T11:42:48;8.30;;;5.85;;
41946;SDS011;27638;42.184;24.848;2023-04-24T11:45:22;8.02;;;5.60;;
41946;SDS011;27638;42.184;24.848;2023-04-24T11:47:48;7.70;;;5.55;;
41946;SDS011;27638;42.184;24.848;2023-04-24T11:50:14;6.13;;;5.30;;
41946;SDS011;27638;42.184;24.848;2023-04-24T11:52:42;7.13;;;5.80;;
41946;SDS011;27638;42.184;24.848;2023-04-24T11:57:48;7.13;;;5.25;;
41946;SDS011;27638;42.184;24.848;2023-04-24T12:00:21;7.25;;;5.50;;
41946;SDS011;27638;42.184;24.848;2023-04-24T12:02:49;8.68;;;6.10;;
41946;SDS011;27638;42.184;24.848;2023-04-24T12:05:25;9.10;;;5.90;;
41946;SDS011;27638;42.184;24.848;2023-04-24T12:07:52;9.10;;;6.32;;
41946;SDS011;27638;42.184;24.848;2023-04-24T12:10:22;7.05;;;5.75;;
41946;SDS011;27638;42.184;24.848;2023-04-24T12:12:55;6.35;;;4.75;;
41946;SDS011;27638;42.184;24.848;2023-04-24T12:15:22;6.05;;;5.43;;
41946;SDS011;27638;42.184;24.848;2023-04-24T12:17:50;5.63;;;5.13;;
41946;SDS011;27638;42.184;24.848;2023-04-24T12:20:16;6.00;;;4.85;;
41946;SDS011;27638;42.184;24.848;2023-04-24T12:22:48;7.07;;;5.47;;
41946;SDS011;27638;42.184;24.848;2023-04-24T12:25:15;6.13;;;5.57;;
41946;SDS011;27638;42.184;24.848;2023-04-24T12:27:43;5.95;;;5.10;;
41946;SDS011;27638;42.184;24.848;2023-04-24T12:30:13;5.75;;;5.15;;
41946;SDS011;27638;42.184;24.848;2023-04-24T12:32:47;5.55;;;5.03;;
41946;SDS011;27638;42.184;24.848;2023-04-24T12:37:46;9.80;;;5.00;;
41946;SDS011;27638;42.184;24.848;2023-04-24T12:40:12;6.03;;;4.80;;
41946;SDS011;27638;42.184;24.848;2023-04-24T12:42:42;6.88;;;4.80;;
41946;SDS011;27638;42.184;24.848;2023-04-24T12:45:09;5.80;;;4.95;;
41946;SDS011;27638;42.184;24.848;2023-04-24T12:47:37;9.68;;;5.55;;
41946;SDS011;27638;42.184;24.848;2023-04-24T12:50:03;5.40;;;4.60;;
41946;SDS011;27638;42.184;24.848;2023-04-24T12:52:30;5.10;;;4.55;;
41946;SDS011;27638;42.184;24.848;2023-04-24T12:54:56;5.78;;;5.00;;
41946;SDS011;27638;42.184;24.848;2023-04-24T12:57:25;5.22;;;4.70;;
41946;SDS011;27638;42.184;24.848;2023-04-24T12:59:55;7.18;;;5.03;;
41946;SDS011;27638;42.184;24.848;2023-04-24T13:02:22;6.78;;;5.00;;
41946;SDS011;27638;42.184;24.848;2023-04-24T13:04:48;7.68;;;5.20;;
41946;SDS011;27638;42.184;24.848;2023-04-24T13:07:14;5.60;;;5.00;;
41946;SDS011;27638;42.184;24.848;2023-04-24T13:09:40;5.75;;;4.78;;
41946;SDS011;27638;42.184;24.848;2023-04-24T13:12:06;6.30;;;4.85;;
41946;SDS011;27638;42.184;24.848;2023-04-24T13:14:32;5.10;;;4.60;;
41946;SDS011;27638;42.184;24.848;2023-04-24T13:16:58;6.40;;;4.85;;
41946;SDS011;27638;42.184;24.848;2023-04-24T13:19:24;6.40;;;4.85;;
41946;SDS011;27638;42.184;24.848;2023-04-24T13:21:56;7.07;;;5.43;;
41946;SDS011;27638;42.184;24.848;2023-04-24T13:24:25;5.18;;;4.68;;
41946;SDS011;27638;42.184;24.848;2023-04-24T13:26:51;6.03;;;5.00;;
41946;SDS011;27638;42.184;24.848;2023-04-24T13:29:19;5.07;;;4.55;;
41946;SDS011;27638;42.184;24.848;2023-04-24T13:31:49;5.25;;;4.75;;
41946;SDS011;27638;42.184;24.848;2023-04-24T13:34:16;6.13;;;5.03;;
41946;SDS011;27638;42.184;24.848;2023-04-24T13:36:44;8.05;;;5.07;;
41946;SDS011;27638;42.184;24.848;2023-04-24T13:39:10;5.68;;;4.57;;
41946;SDS011;27638;42.184;24.848;2023-04-24T13:41:35;6.97;;;4.88;;
41946;SDS011;27638;42.184;24.848;2023-04-24T13:44:01;5.28;;;4.20;;
41946;SDS011;27638;42.184;24.848;2023-04-24T13:46:27;30.00;;;11.27;;
41946;SDS011;27638;42.184;24.848;2023-04-24T13:48:53;7.13;;;6.07;;
41946;SDS011;27638;42.184;24.848;2023-04-24T13:51:18;23.55;;;10.32;;
41946;SDS011;27638;42.184;24.848;2023-04-24T13:53:44;6.97;;;5.35;;
41946;SDS011;27638;42.184;24.848;2023-04-24T13:56:09;6.30;;;5.07;;
41946;SDS011;27638;42.184;24.848;2023-04-24T13:58:35;7.18;;;4.93;;
41946;SDS011;27638;42.184;24.848;2023-04-24T14:01:03;7.00;;;4.55;;
41946;SDS011;27638;42.184;24.848;2023-04-24T14:03:29;5.57;;;4.93;;
41946;SDS011;27638;42.184;24.848;2023-04-24T14:05:55;5.15;;;4.65;;
41946;SDS011;27638;42.184;24.848;2023-04-24T14:08:20;5.65;;;4.47;;
41946;SDS011;27638;42.184;24.848;2023-04-24T14:10:46;6.57;;;4.80;;
41946;SDS011;27638;42.184;24.848;2023-04-24T14:13:11;5.07;;;4.53;;
41946;SDS011;27638;42.184;24.848;2023-04-24T14:15:37;10.07;;;5.60;;
41946;SDS011;27638;42.184;24.848;2023-04-24T14:18:03;6.80;;;5.05;;
41946;SDS011;27638;42.184;24.848;2023-04-24T14:20:28;5.18;;;4.68;;
41946;SDS011;27638;42.184;24.848;2023-04-24T14:22:54;5.35;;;4.85;;
41946;SDS011;27638;42.184;24.848;2023-04-24T14:25:19;5.38;;;4.60;;
41946;SDS011;27638;42.184;24.848;2023-04-24T14:27:45;15.35;;;5.90;;
41946;SDS011;27638;42.184;24.848;2023-04-24T14:30:12;6.22;;;4.60;;
41946;SDS011;27638;42.184;24.848;2023-04-24T14:32:38;6.93;;;4.10;;
41946;SDS011;27638;42.184;24.848;2023-04-24T14:35:04;6.43;;;4.50;;
41946;SDS011;27638;42.184;24.848;2023-04-24T14:37:31;4.85;;;4.35;;
41946;SDS011;27638;42.184;24.848;2023-04-24T14:39:56;8.07;;;5.20;;
41946;SDS011;27638;42.184;24.848;2023-04-24T14:42:22;4.75;;;4.22;;
41946;SDS011;27638;42.184;24.848;2023-04-24T14:44:47;7.68;;;4.65;;
41946;SDS011;27638;42.184;24.848;2023-04-24T14:47:12;4.75;;;4.15;;